sensor_id;sensor_type;location;lat;lon;timestamp;P1;durP1;ratioP1;P2;durP2;ratioP2
32876;SDS011;19226;51.600;8.034;2023-03-03T00:02:25;50.58;;;23.27;;
32876;SDS011;19226;51.600;8.034;2023-03-03T00:05:10;53.45;;;24.70;;
32876;SDS011;19226;51.600;8.034;2023-03-03T00:07:58;52.47;;;24.52;;
32876;SDS011;19226;51.600;8.034;2023-03-03T00:10:43;50.05;;;23.73;;
32876;SDS011;19226;51.600;8.034;2023-03-03T00:13:29;52.33;;;24.00;;
32876;SDS011;19226;51.600;8.034;2023-03-03T00:22:00;44.35;;;22.77;;
32876;SDS011;19226;51.600;8.034;2023-03-03T00:24:44;48.17;;;23.40;;
32876;SDS011;19226;51.600;8.034;2023-03-03T00:27:30;54.05;;;24.55;;
32876;SDS011;19226;51.600;8.034;2023-03-03T00:30:21;51.78;;;24.02;;
32876;SDS011;19226;51.600;8.034;2023-03-03T00:33:24;53.78;;;23.60;;
32876;SDS011;19226;51.600;8.034;2023-03-03T00:36:21;50.05;;;23.75;;
32876;SDS011;19226;51.600;8.034;2023-03-03T00:39:23;52.00;;;22.38;;
32876;SDS011;19226;51.600;8.034;2023-03-03T00:42:21;52.72;;;23.23;;
32876;SDS011;19226;51.600;8.034;2023-03-03T00:45:50;50.10;;;24.15;;
32876;SDS011;19226;51.600;8.034;2023-03-03T00:48:27;49.90;;;23.42;;
32876;SDS011;19226;51.600;8.034;2023-03-03T00:51:30;51.80;;;22.58;;
32876;SDS011;19226;51.600;8.034;2023-03-03T00:54:17;51.53;;;22.15;;
32876;SDS011;19226;51.600;8.034;2023-03-03T00:57:01;51.33;;;24.08;;
32876;SDS011;19226;51.600;8.034;2023-03-03T00:59:46;52.80;;;23.58;;
32876;SDS011;19226;51.600;8.034;2023-03-03T01:02:30;52.67;;;24.02;;
32876;SDS011;19226;51.600;8.034;2023-03-03T01:05:15;51.95;;;23.40;;
32876;SDS011;19226;51.600;8.034;2023-03-03T01:08:01;52.22;;;23.52;;
32876;SDS011;19226;51.600;8.034;2023-03-03T01:10:47;47.78;;;23.35;;
32876;SDS011;19226;51.600;8.034;2023-03-03T01:13:34;54.13;;;22.52;;
32876;SDS011;19226;51.600;8.034;2023-03-03T01:16:20;49.40;;;22.65;;
32876;SDS011;19226;51.600;8.034;2023-03-03T01:19:05;54.15;;;22.42;;
32876;SDS011;19226;51.600;8.034;2023-03-03T01:21:49;44.97;;;21.83;;
32876;SDS011;19226;51.600;8.034;2023-03-03T01:24:34;53.20;;;21.92;;
32876;SDS011;19226;51.600;8.034;2023-03-03T01:27:19;49.10;;;22.02;;
32876;SDS011;19226;51.600;8.034;2023-03-03T01:30:05;53.97;;;22.83;;
32876;SDS011;19226;51.600;8.034;2023-03-03T01:32:51;48.95;;;22.05;;
32876;SDS011;19226;51.600;8.034;2023-03-03T01:35:36;50.20;;;22.50;;
32876;SDS011;19226;51.600;8.034;2023-03-03T01:38:20;49.20;;;23.23;;
32876;SDS011;19226;51.600;8.034;2023-03-03T01:41:05;53.35;;;22.48;;
32876;SDS011;19226;51.600;8.034;2023-03-03T01:43:49;49.92;;;21.48;;
32876;SDS011;19226;51.600;8.034;2023-03-03T01:49:30;52.13;;;22.45;;
32876;SDS011;19226;51.600;8.034;2023-03-03T01:52:21;54.85;;;23.67;;
32876;SDS011;19226;51.600;8.034;2023-03-03T01:55:19;60.67;;;23.48;;
32876;SDS011;19226;51.600;8.034;2023-03-03T01:58:15;48.22;;;21.25;;
32876;SDS011;19226;51.600;8.034;2023-03-03T02:01:05;49.55;;;21.85;;
32876;SDS011;19226;51.600;8.034;2023-03-03T02:03:52;49.22;;;21.95;;
32876;SDS011;19226;51.600;8.034;2023-03-03T02:06:37;49.60;;;21.80;;
32876;SDS011;19226;51.600;8.034;2023-03-03T02:12:49;58.05;;;23.15;;
32876;SDS011;19226;51.600;8.034;2023-03-03T02:15:36;45.10;;;21.25;;
32876;SDS011;19226;51.600;8.034;2023-03-03T02:18:21;47.97;;;21.73;;
32876;SDS011;19226;51.600;8.034;2023-03-03T02:21:17;45.72;;;19.95;;
32876;SDS011;19226;51.600;8.034;2023-03-03T02:27:00;46.60;;;19.50;;
32876;SDS011;19226;51.600;8.034;2023-03-03T02:29:46;54.03;;;22.17;;
32876;SDS011;19226;51.600;8.034;2023-03-03T02:32:31;46.15;;;20.08;;
32876;SDS011;19226;51.600;8.034;2023-03-03T02:35:35;47.75;;;21.05;;
32876;SDS011;19226;51.600;8.034;2023-03-03T02:38:26;46.25;;;20.17;;
32876;SDS011;19226;51.600;8.034;2023-03-03T02:44:17;48.38;;;20.75;;
32876;SDS011;19226;51.600;8.034;2023-03-03T02:47:06;46.08;;;21.17;;
32876;SDS011;19226;51.600;8.034;2023-03-03T02:49:51;44.80;;;19.58;;
32876;SDS011;19226;51.600;8.034;2023-03-03T02:52:35;50.90;;;21.27;;
32876;SDS011;19226;51.600;8.034;2023-03-03T02:55:20;43.15;;;19.45;;
32876;SDS011;19226;51.600;8.034;2023-03-03T02:58:05;43.25;;;19.95;;
32876;SDS011;19226;51.600;8.034;2023-03-03T03:00:49;40.90;;;18.63;;
32876;SDS011;19226;51.600;8.034;2023-03-03T03:03:38;47.75;;;19.73;;
32876;SDS011;19226;51.600;8.034;2023-03-03T03:06:24;40.28;;;17.95;;
32876;SDS011;19226;51.600;8.034;2023-03-03T03:09:09;38.97;;;18.33;;
32876;SDS011;19226;51.600;8.034;2023-03-03T03:11:54;42.83;;;18.65;;
32876;SDS011;19226;51.600;8.034;2023-03-03T03:14:42;34.80;;;16.45;;
32876;SDS011;19226;51.600;8.034;2023-03-03T03:17:26;36.80;;;16.48;;
32876;SDS011;19226;51.600;8.034;2023-03-03T03:20:12;45.92;;;18.52;;
32876;SDS011;19226;51.600;8.034;2023-03-03T03:22:56;41.17;;;18.38;;
32876;SDS011;19226;51.600;8.034;2023-03-03T03:25:41;35.88;;;16.52;;
32876;SDS011;19226;51.600;8.034;2023-03-03T03:28:31;42.38;;;18.15;;
32876;SDS011;19226;51.600;8.034;2023-03-03T03:31:16;39.78;;;17.52;;
32876;SDS011;19226;51.600;8.034;2023-03-03T03:34:03;39.33;;;18.17;;
32876;SDS011;19226;51.600;8.034;2023-03-03T03:36:48;40.42;;;19.20;;
32876;SDS011;19226;51.600;8.034;2023-03-03T03:39:34;41.38;;;19.58;;
32876;SDS011;19226;51.600;8.034;2023-03-03T03:42:19;34.28;;;17.42;;
32876;SDS011;19226;51.600;8.034;2023-03-03T03:45:05;41.72;;;18.35;;
32876;SDS011;19226;51.600;8.034;2023-03-03T03:47:50;43.28;;;18.02;;
32876;SDS011;19226;51.600;8.034;2023-03-03T03:50:35;37.88;;;17.27;;
32876;SDS011;19226;51.600;8.034;2023-03-03T03:53:21;41.00;;;18.02;;
32876;SDS011;19226;51.600;8.034;2023-03-03T03:56:05;36.05;;;17.77;;
32876;SDS011;19226;51.600;8.034;2023-03-03T03:58:50;35.80;;;17.67;;
32876;SDS011;19226;51.600;8.034;2023-03-03T04:01:35;39.65;;;17.42;;
32876;SDS011;19226;51.600;8.034;2023-03-03T04:04:20;40.88;;;18.45;;
32876;SDS011;19226;51.600;8.034;2023-03-03T04:07:05;38.67;;;18.35;;
32876;SDS011;19226;51.600;8.034;2023-03-03T04:09:51;37.38;;;17.45;;
32876;SDS011;19226;51.600;8.034;2023-03-03T04:12:36;38.67;;;18.58;;
32876;SDS011;19226;51.600;8.034;2023-03-03T04:15:27;40.25;;;18.67;;
32876;SDS011;19226;51.600;8.034;2023-03-03T04:18:12;37.85;;;16.92;;
32876;SDS011;19226;51.600;8.034;2023-03-03T04:20:57;37.45;;;17.52;;
32876;SDS011;19226;51.600;8.034;2023-03-03T04:23:43;35.67;;;17.75;;
32876;SDS011;19226;51.600;8.034;2023-03-03T04:26:27;42.15;;;18.25;;
32876;SDS011;19226;51.600;8.034;2023-03-03T04:29:12;39.15;;;18.42;;
32876;SDS011;19226;51.600;8.034;2023-03-03T04:31:58;40.10;;;17.35;;
32876;SDS011;19226;51.600;8.034;2023-03-03T04:34:43;39.33;;;17.25;;
32876;SDS011;19226;51.600;8.034;2023-03-03T04:37:28;38.88;;;18.40;;
32876;SDS011;19226;51.600;8.034;2023-03-03T04:40:13;44.40;;;19.13;;
32876;SDS011;19226;51.600;8.034;2023-03-03T04:42:59;41.33;;;18.65;;
32876;SDS011;19226;51.600;8.034;2023-03-03T04:45:44;37.92;;;17.83;;
32876;SDS011;19226;51.600;8.034;2023-03-03T04:48:29;40.28;;;19.27;;
32876;SDS011;19226;51.600;8.034;2023-03-03T04:51:14;34.22;;;17.55;;
32876;SDS011;19226;51.600;8.034;2023-03-03T04:53:59;41.83;;;17.45;;
32876;SDS011;19226;51.600;8.034;2023-03-03T04:56:44;40.15;;;17.95;;
32876;SDS011;19226;51.600;8.034;2023-03-03T04:59:29;41.03;;;18.33;;
32876;SDS011;19226;51.600;8.034;2023-03-03T05:02:14;41.78;;;18.13;;
32876;SDS011;19226;51.600;8.034;2023-03-03T05:04:58;38.88;;;18.20;;
32876;SDS011;19226;51.600;8.034;2023-03-03T05:07:43;34.67;;;17.88;;
32876;SDS011;19226;51.600;8.034;2023-03-03T05:10:27;37.50;;;17.77;;
32876;SDS011;19226;51.600;8.034;2023-03-03T05:13:12;40.80;;;18.42;;
32876;SDS011;19226;51.600;8.034;2023-03-03T05:15:58;34.33;;;17.33;;
32876;SDS011;19226;51.600;8.034;2023-03-03T05:18:42;41.03;;;18.23;;
32876;SDS011;19226;51.600;8.034;2023-03-03T05:21:28;36.83;;;18.35;;
32876;SDS011;19226;51.600;8.034;2023-03-03T05:24:13;34.90;;;17.92;;
32876;SDS011;19226;51.600;8.034;2023-03-03T05:26:57;40.75;;;18.92;;
32876;SDS011;19226;51.600;8.034;2023-03-03T05:29:42;38.13;;;18.05;;
32876;SDS011;19226;51.600;8.034;2023-03-03T05:32:26;37.88;;;18.25;;
32876;SDS011;19226;51.600;8.034;2023-03-03T05:35:11;37.47;;;18.30;;
32876;SDS011;19226;51.600;8.034;2023-03-03T05:37:55;44.42;;;19.27;;
32876;SDS011;19226;51.600;8.034;2023-03-03T05:40:41;38.55;;;17.05;;
32876;SDS011;19226;51.600;8.034;2023-03-03T05:43:26;33.45;;;17.05;;
32876;SDS011;19226;51.600;8.034;2023-03-03T05:46:12;31.63;;;16.70;;
32876;SDS011;19226;51.600;8.034;2023-03-03T05:48:57;31.48;;;15.82;;
32876;SDS011;19226;51.600;8.034;2023-03-03T05:51:41;29.55;;;15.35;;
32876;SDS011;19226;51.600;8.034;2023-03-03T05:54:26;34.72;;;15.70;;
32876;SDS011;19226;51.600;8.034;2023-03-03T05:57:10;33.67;;;16.30;;
32876;SDS011;19226;51.600;8.034;2023-03-03T05:59:55;36.20;;;17.65;;
32876;SDS011;19226;51.600;8.034;2023-03-03T06:02:40;34.30;;;16.75;;
32876;SDS011;19226;51.600;8.034;2023-03-03T06:05:25;38.10;;;17.85;;
32876;SDS011;19226;51.600;8.034;2023-03-03T06:08:09;33.75;;;16.15;;
32876;SDS011;19226;51.600;8.034;2023-03-03T06:10:54;33.20;;;16.30;;
32876;SDS011;19226;51.600;8.034;2023-03-03T06:13:38;34.60;;;16.88;;
32876;SDS011;19226;51.600;8.034;2023-03-03T06:16:25;37.55;;;18.52;;
32876;SDS011;19226;51.600;8.034;2023-03-03T06:19:10;33.42;;;17.75;;
32876;SDS011;19226;51.600;8.034;2023-03-03T06:21:54;37.35;;;17.25;;
32876;SDS011;19226;51.600;8.034;2023-03-03T06:24:39;33.85;;;17.02;;
32876;SDS011;19226;51.600;8.034;2023-03-03T06:27:23;35.15;;;16.58;;
32876;SDS011;19226;51.600;8.034;2023-03-03T06:30:08;35.78;;;17.48;;
32876;SDS011;19226;51.600;8.034;2023-03-03T06:32:53;34.47;;;16.52;;
32876;SDS011;19226;51.600;8.034;2023-03-03T06:35:38;39.60;;;18.10;;
32876;SDS011;19226;51.600;8.034;2023-03-03T06:38:22;39.25;;;17.77;;
32876;SDS011;19226;51.600;8.034;2023-03-03T06:41:07;40.47;;;17.70;;
32876;SDS011;19226;51.600;8.034;2023-03-03T06:43:51;43.80;;;19.60;;
32876;SDS011;19226;51.600;8.034;2023-03-03T06:46:36;39.53;;;18.85;;
32876;SDS011;19226;51.600;8.034;2023-03-03T06:49:21;36.75;;;17.65;;
32876;SDS011;19226;51.600;8.034;2023-03-03T06:52:13;36.63;;;18.30;;
32876;SDS011;19226;51.600;8.034;2023-03-03T06:55:08;37.85;;;17.35;;
32876;SDS011;19226;51.600;8.034;2023-03-03T06:58:03;36.15;;;17.27;;
32876;SDS011;19226;51.600;8.034;2023-03-03T07:00:56;34.58;;;17.48;;
32876;SDS011;19226;51.600;8.034;2023-03-03T07:03:42;37.10;;;17.27;;
32876;SDS011;19226;51.600;8.034;2023-03-03T07:06:28;37.60;;;16.88;;
32876;SDS011;19226;51.600;8.034;2023-03-03T07:09:18;35.40;;;16.45;;
32876;SDS011;19226;51.600;8.034;2023-03-03T07:12:15;34.13;;;16.75;;
32876;SDS011;19226;51.600;8.034;2023-03-03T07:15:15;34.90;;;17.60;;
32876;SDS011;19226;51.600;8.034;2023-03-03T07:18:08;37.00;;;17.08;;
32876;SDS011;19226;51.600;8.034;2023-03-03T07:21:22;37.15;;;16.92;;
32876;SDS011;19226;51.600;8.034;2023-03-03T07:24:29;33.90;;;17.38;;
32876;SDS011;19226;51.600;8.034;2023-03-03T07:32:58;34.72;;;17.02;;
32876;SDS011;19226;51.600;8.034;2023-03-03T07:35:43;36.28;;;17.70;;
32876;SDS011;19226;51.600;8.034;2023-03-03T07:38:44;39.25;;;17.15;;
32876;SDS011;19226;51.600;8.034;2023-03-03T07:41:35;34.47;;;16.98;;
32876;SDS011;19226;51.600;8.034;2023-03-03T07:44:21;32.25;;;15.88;;
32876;SDS011;19226;51.600;8.034;2023-03-03T07:50:17;36.50;;;17.00;;
32876;SDS011;19226;51.600;8.034;2023-03-03T07:53:05;32.05;;;16.48;;
32876;SDS011;19226;51.600;8.034;2023-03-03T07:56:01;34.75;;;16.95;;
32876;SDS011;19226;51.600;8.034;2023-03-03T07:58:58;38.25;;;17.77;;
32876;SDS011;19226;51.600;8.034;2023-03-03T08:01:45;40.75;;;18.50;;
32876;SDS011;19226;51.600;8.034;2023-03-03T08:04:38;38.63;;;17.70;;
32876;SDS011;19226;51.600;8.034;2023-03-03T08:07:25;44.08;;;18.30;;
32876;SDS011;19226;51.600;8.034;2023-03-03T08:10:33;49.53;;;19.52;;
32876;SDS011;19226;51.600;8.034;2023-03-03T08:19:26;52.35;;;19.13;;
32876;SDS011;19226;51.600;8.034;2023-03-03T08:22:46;49.05;;;19.73;;
32876;SDS011;19226;51.600;8.034;2023-03-03T08:25:23;43.78;;;18.83;;
32876;SDS011;19226;51.600;8.034;2023-03-03T08:28:08;38.55;;;17.90;;
32876;SDS011;19226;51.600;8.034;2023-03-03T08:30:55;40.22;;;18.13;;
32876;SDS011;19226;51.600;8.034;2023-03-03T08:33:40;46.67;;;18.50;;
32876;SDS011;19226;51.600;8.034;2023-03-03T08:36:24;48.17;;;20.77;;
32876;SDS011;19226;51.600;8.034;2023-03-03T08:39:09;61.55;;;21.88;;
32876;SDS011;19226;51.600;8.034;2023-03-03T08:41:53;52.47;;;20.63;;
32876;SDS011;19226;51.600;8.034;2023-03-03T08:44:38;64.90;;;22.48;;
32876;SDS011;19226;51.600;8.034;2023-03-03T08:47:22;66.07;;;21.77;;
32876;SDS011;19226;51.600;8.034;2023-03-03T08:50:07;68.88;;;20.73;;
32876;SDS011;19226;51.600;8.034;2023-03-03T08:52:52;62.53;;;21.77;;
32876;SDS011;19226;51.600;8.034;2023-03-03T08:55:36;56.92;;;19.70;;
32876;SDS011;19226;51.600;8.034;2023-03-03T08:58:22;57.25;;;18.85;;
32876;SDS011;19226;51.600;8.034;2023-03-03T09:01:06;58.58;;;21.48;;
32876;SDS011;19226;51.600;8.034;2023-03-03T09:03:51;51.33;;;19.13;;
32876;SDS011;19226;51.600;8.034;2023-03-03T09:06:36;52.10;;;17.70;;
32876;SDS011;19226;51.600;8.034;2023-03-03T09:09:20;53.78;;;18.70;;
32876;SDS011;19226;51.600;8.034;2023-03-03T09:12:16;57.75;;;17.13;;
32876;SDS011;19226;51.600;8.034;2023-03-03T09:15:06;49.38;;;17.48;;
32876;SDS011;19226;51.600;8.034;2023-03-03T09:20:56;50.25;;;16.70;;
32876;SDS011;19226;51.600;8.034;2023-03-03T09:23:41;48.78;;;16.95;;
32876;SDS011;19226;51.600;8.034;2023-03-03T09:26:30;47.15;;;17.05;;
32876;SDS011;19226;51.600;8.034;2023-03-03T09:29:44;44.92;;;16.10;;
32876;SDS011;19226;51.600;8.034;2023-03-03T09:32:38;50.15;;;17.58;;
32876;SDS011;19226;51.600;8.034;2023-03-03T09:35:28;45.53;;;15.35;;
32876;SDS011;19226;51.600;8.034;2023-03-03T09:38:26;48.92;;;16.73;;
32876;SDS011;19226;51.600;8.034;2023-03-03T10:00:06;53.03;;;16.20;;
32876;SDS011;19226;51.600;8.034;2023-03-03T10:03:28;46.77;;;16.07;;
32876;SDS011;19226;51.600;8.034;2023-03-03T10:21:09;38.90;;;14.80;;
32876;SDS011;19226;51.600;8.034;2023-03-03T10:33:45;48.40;;;15.68;;
32876;SDS011;19226;51.600;8.034;2023-03-03T10:36:54;49.13;;;16.48;;
32876;SDS011;19226;51.600;8.034;2023-03-03T10:42:53;42.47;;;15.30;;
32876;SDS011;19226;51.600;8.034;2023-03-03T10:46:01;43.53;;;14.63;;
32876;SDS011;19226;51.600;8.034;2023-03-03T11:01:33;44.95;;;15.45;;
32876;SDS011;19226;51.600;8.034;2023-03-03T11:26:31;50.80;;;15.32;;
32876;SDS011;19226;51.600;8.034;2023-03-03T11:41:40;46.45;;;16.42;;
32876;SDS011;19226;51.600;8.034;2023-03-03T11:44:36;56.40;;;17.98;;
32876;SDS011;19226;51.600;8.034;2023-03-03T11:47:29;49.65;;;18.02;;
32876;SDS011;19226;51.600;8.034;2023-03-03T11:56:29;49.58;;;17.27;;
32876;SDS011;19226;51.600;8.034;2023-03-03T11:59:37;55.13;;;18.63;;
32876;SDS011;19226;51.600;8.034;2023-03-03T12:14:25;52.03;;;17.42;;
32876;SDS011;19226;51.600;8.034;2023-03-03T12:17:40;48.55;;;17.35;;
32876;SDS011;19226;51.600;8.034;2023-03-03T12:27:13;52.47;;;16.70;;
32876;SDS011;19226;51.600;8.034;2023-03-03T12:42:55;45.95;;;16.88;;
32876;SDS011;19226;51.600;8.034;2023-03-03T12:48:53;55.00;;;17.58;;
32876;SDS011;19226;51.600;8.034;2023-03-03T12:51:45;45.42;;;17.08;;
32876;SDS011;19226;51.600;8.034;2023-03-03T12:58:26;52.83;;;18.25;;
32876;SDS011;19226;51.600;8.034;2023-03-03T13:10:23;50.15;;;18.90;;
32876;SDS011;19226;51.600;8.034;2023-03-03T13:13:51;54.15;;;18.20;;
32876;SDS011;19226;51.600;8.034;2023-03-03T13:16:47;52.63;;;17.42;;
32876;SDS011;19226;51.600;8.034;2023-03-03T13:26:43;47.92;;;16.83;;
32876;SDS011;19226;51.600;8.034;2023-03-03T13:29:40;47.47;;;16.63;;
32876;SDS011;19226;51.600;8.034;2023-03-03T13:32:32;42.72;;;17.20;;
32876;SDS011;19226;51.600;8.034;2023-03-03T13:38:30;39.60;;;15.32;;
32876;SDS011;19226;51.600;8.034;2023-03-03T13:41:28;49.25;;;16.50;;
32876;SDS011;19226;51.600;8.034;2023-03-03T13:44:23;42.05;;;16.33;;
32876;SDS011;19226;51.600;8.034;2023-03-03T13:50:22;50.17;;;17.02;;
32876;SDS011;19226;51.600;8.034;2023-03-03T13:53:28;48.47;;;17.05;;
32876;SDS011;19226;51.600;8.034;2023-03-03T14:05:15;49.08;;;17.27;;
32876;SDS011;19226;51.600;8.034;2023-03-03T14:14:18;42.25;;;16.50;;
32876;SDS011;19226;51.600;8.034;2023-03-03T14:17:25;43.65;;;15.02;;
32876;SDS011;19226;51.600;8.034;2023-03-03T14:23:02;43.22;;;15.82;;
32876;SDS011;19226;51.600;8.034;2023-03-03T14:25:58;45.00;;;17.23;;
32876;SDS011;19226;51.600;8.034;2023-03-03T14:28:47;46.85;;;17.08;;
32876;SDS011;19226;51.600;8.034;2023-03-03T14:31:38;43.88;;;16.73;;
32876;SDS011;19226;51.600;8.034;2023-03-03T14:34:33;50.05;;;17.05;;
32876;SDS011;19226;51.600;8.034;2023-03-03T14:40:15;51.20;;;17.83;;
32876;SDS011;19226;51.600;8.034;2023-03-03T14:43:04;45.90;;;18.60;;
32876;SDS011;19226;51.600;8.034;2023-03-03T14:46:26;46.53;;;18.02;;
32876;SDS011;19226;51.600;8.034;2023-03-03T14:49:30;48.20;;;17.92;;
32876;SDS011;19226;51.600;8.034;2023-03-03T14:52:21;43.58;;;18.60;;
32876;SDS011;19226;51.600;8.034;2023-03-03T14:55:27;49.78;;;20.90;;
32876;SDS011;19226;51.600;8.034;2023-03-03T14:58:28;54.83;;;22.27;;
32876;SDS011;19226;51.600;8.034;2023-03-03T15:01:21;50.78;;;21.05;;
32876;SDS011;19226;51.600;8.034;2023-03-03T15:04:22;50.42;;;21.38;;
32876;SDS011;19226;51.600;8.034;2023-03-03T15:10:26;49.17;;;19.48;;
32876;SDS011;19226;51.600;8.034;2023-03-03T15:16:17;53.17;;;19.55;;
32876;SDS011;19226;51.600;8.034;2023-03-03T15:25:42;45.03;;;19.25;;
32876;SDS011;19226;51.600;8.034;2023-03-03T15:34:31;56.42;;;21.80;;
32876;SDS011;19226;51.600;8.034;2023-03-03T15:37:41;53.42;;;20.70;;
32876;SDS011;19226;51.600;8.034;2023-03-03T15:40:38;54.57;;;21.53;;
32876;SDS011;19226;51.600;8.034;2023-03-03T15:43:43;46.05;;;20.45;;
32876;SDS011;19226;51.600;8.034;2023-03-03T16:02:14;42.08;;;18.88;;
32876;SDS011;19226;51.600;8.034;2023-03-03T16:05:18;55.92;;;20.17;;
32876;SDS011;19226;51.600;8.034;2023-03-03T16:08:16;60.47;;;20.13;;
32876;SDS011;19226;51.600;8.034;2023-03-03T16:11:07;53.47;;;20.60;;
32876;SDS011;19226;51.600;8.034;2023-03-03T16:17:17;58.35;;;20.77;;
32876;SDS011;19226;51.600;8.034;2023-03-03T16:34:11;57.03;;;19.75;;
32876;SDS011;19226;51.600;8.034;2023-03-03T16:36:28;48.25;;;19.40;;
32876;SDS011;19226;51.600;8.034;2023-03-03T16:45:27;48.50;;;18.70;;
32876;SDS011;19226;51.600;8.034;2023-03-03T16:51:34;53.53;;;18.27;;
32876;SDS011;19226;51.600;8.034;2023-03-03T16:54:35;51.83;;;19.63;;
32876;SDS011;19226;51.600;8.034;2023-03-03T17:00:39;49.20;;;18.38;;
32876;SDS011;19226;51.600;8.034;2023-03-03T17:07:18;51.95;;;18.77;;
32876;SDS011;19226;51.600;8.034;2023-03-03T17:09:42;51.45;;;19.30;;
32876;SDS011;19226;51.600;8.034;2023-03-03T17:28:08;61.80;;;23.58;;
32876;SDS011;19226;51.600;8.034;2023-03-03T17:31:12;58.35;;;21.45;;
32876;SDS011;19226;51.600;8.034;2023-03-03T17:37:42;54.90;;;22.35;;
32876;SDS011;19226;51.600;8.034;2023-03-03T17:43:40;58.92;;;19.77;;
32876;SDS011;19226;51.600;8.034;2023-03-03T17:52:38;80.90;;;31.40;;
32876;SDS011;19226;51.600;8.034;2023-03-03T18:11:28;59.13;;;19.27;;
32876;SDS011;19226;51.600;8.034;2023-03-03T18:29:20;63.28;;;21.60;;
32876;SDS011;19226;51.600;8.034;2023-03-03T18:32:16;58.35;;;19.45;;
32876;SDS011;19226;51.600;8.034;2023-03-03T18:38:27;65.57;;;21.40;;
32876;SDS011;19226;51.600;8.034;2023-03-03T18:44:44;52.92;;;19.25;;
32876;SDS011;19226;51.600;8.034;2023-03-03T18:48:16;58.53;;;18.40;;
32876;SDS011;19226;51.600;8.034;2023-03-03T18:50:47;60.42;;;19.38;;
32876;SDS011;19226;51.600;8.034;2023-03-03T18:53:33;59.50;;;19.17;;
32876;SDS011;19226;51.600;8.034;2023-03-03T18:56:40;52.17;;;19.15;;
32876;SDS011;19226;51.600;8.034;2023-03-03T18:59:54;59.28;;;18.92;;
32876;SDS011;19226;51.600;8.034;2023-03-03T19:02:40;58.78;;;20.35;;
32876;SDS011;19226;51.600;8.034;2023-03-03T19:05:46;126.07;;;41.55;;
32876;SDS011;19226;51.600;8.034;2023-03-03T19:08:54;70.97;;;24.92;;
32876;SDS011;19226;51.600;8.034;2023-03-03T19:11:55;94.03;;;33.30;;
32876;SDS011;19226;51.600;8.034;2023-03-03T19:14:44;81.63;;;26.30;;
32876;SDS011;19226;51.600;8.034;2023-03-03T19:20:21;60.53;;;20.55;;
32876;SDS011;19226;51.600;8.034;2023-03-03T19:23:10;61.05;;;20.83;;
32876;SDS011;19226;51.600;8.034;2023-03-03T19:26:19;65.55;;;20.63;;
32876;SDS011;19226;51.600;8.034;2023-03-03T19:35:36;65.30;;;22.38;;
32876;SDS011;19226;51.600;8.034;2023-03-03T19:38:32;61.40;;;19.13;;
32876;SDS011;19226;51.600;8.034;2023-03-03T19:41:32;60.80;;;20.48;;
32876;SDS011;19226;51.600;8.034;2023-03-03T19:57:45;62.28;;;21.27;;
32876;SDS011;19226;51.600;8.034;2023-03-03T20:00:43;58.90;;;19.10;;
32876;SDS011;19226;51.600;8.034;2023-03-03T20:06:44;61.38;;;21.05;;
32876;SDS011;19226;51.600;8.034;2023-03-03T20:16:11;59.88;;;19.42;;
32876;SDS011;19226;51.600;8.034;2023-03-03T20:19:14;58.03;;;19.20;;
32876;SDS011;19226;51.600;8.034;2023-03-03T20:22:33;61.58;;;19.75;;
32876;SDS011;19226;51.600;8.034;2023-03-03T20:37:56;63.67;;;21.15;;
32876;SDS011;19226;51.600;8.034;2023-03-03T20:53:01;62.42;;;20.02;;
32876;SDS011;19226;51.600;8.034;2023-03-03T21:07:51;57.85;;;19.48;;
32876;SDS011;19226;51.600;8.034;2023-03-03T21:10:54;58.03;;;19.25;;
32876;SDS011;19226;51.600;8.034;2023-03-03T21:13:40;60.20;;;20.05;;
32876;SDS011;19226;51.600;8.034;2023-03-03T21:16:29;55.40;;;20.08;;
32876;SDS011;19226;51.600;8.034;2023-03-03T21:19:22;55.47;;;20.08;;
32876;SDS011;19226;51.600;8.034;2023-03-03T21:22:10;59.90;;;20.90;;
32876;SDS011;19226;51.600;8.034;2023-03-03T21:24:56;57.35;;;18.52;;
32876;SDS011;19226;51.600;8.034;2023-03-03T21:27:43;49.90;;;19.47;;
32876;SDS011;19226;51.600;8.034;2023-03-03T21:30:28;56.28;;;19.25;;
32876;SDS011;19226;51.600;8.034;2023-03-03T21:33:36;52.97;;;19.30;;
32876;SDS011;19226;51.600;8.034;2023-03-03T21:40:10;61.25;;;20.92;;
32876;SDS011;19226;51.600;8.034;2023-03-03T21:42:39;53.35;;;18.48;;
32876;SDS011;19226;51.600;8.034;2023-03-03T21:45:25;62.58;;;20.17;;
32876;SDS011;19226;51.600;8.034;2023-03-03T21:48:10;62.50;;;21.52;;
32876;SDS011;19226;51.600;8.034;2023-03-03T21:50:54;59.13;;;23.08;;
32876;SDS011;19226;51.600;8.034;2023-03-03T21:53:42;58.97;;;19.58;;
32876;SDS011;19226;51.600;8.034;2023-03-03T21:56:27;53.67;;;19.95;;
32876;SDS011;19226;51.600;8.034;2023-03-03T21:59:12;52.58;;;19.80;;
32876;SDS011;19226;51.600;8.034;2023-03-03T22:01:56;54.92;;;20.38;;
32876;SDS011;19226;51.600;8.034;2023-03-03T22:04:41;56.45;;;19.10;;
32876;SDS011;19226;51.600;8.034;2023-03-03T22:07:26;52.58;;;18.80;;
32876;SDS011;19226;51.600;8.034;2023-03-03T22:10:11;56.03;;;19.48;;
32876;SDS011;19226;51.600;8.034;2023-03-03T22:12:55;56.58;;;19.58;;
32876;SDS011;19226;51.600;8.034;2023-03-03T22:15:40;48.10;;;19.85;;
32876;SDS011;19226;51.600;8.034;2023-03-03T22:18:24;47.10;;;18.80;;
32876;SDS011;19226;51.600;8.034;2023-03-03T22:21:09;52.10;;;19.90;;
32876;SDS011;19226;51.600;8.034;2023-03-03T22:23:53;61.33;;;20.17;;
32876;SDS011;19226;51.600;8.034;2023-03-03T22:26:38;46.40;;;19.13;;
32876;SDS011;19226;51.600;8.034;2023-03-03T22:29:23;54.30;;;19.30;;
32876;SDS011;19226;51.600;8.034;2023-03-03T22:32:07;53.95;;;20.35;;
32876;SDS011;19226;51.600;8.034;2023-03-03T22:34:52;54.75;;;20.90;;
32876;SDS011;19226;51.600;8.034;2023-03-03T22:37:37;50.78;;;19.00;;
32876;SDS011;19226;51.600;8.034;2023-03-03T22:40:21;50.65;;;18.70;;
32876;SDS011;19226;51.600;8.034;2023-03-03T22:43:06;46.90;;;17.70;;
32876;SDS011;19226;51.600;8.034;2023-03-03T22:45:51;49.63;;;18.85;;
32876;SDS011;19226;51.600;8.034;2023-03-03T22:48:35;46.10;;;17.85;;
32876;SDS011;19226;51.600;8.034;2023-03-03T22:51:20;48.38;;;19.77;;
32876;SDS011;19226;51.600;8.034;2023-03-03T22:54:05;50.85;;;18.52;;
32876;SDS011;19226;51.600;8.034;2023-03-03T22:56:50;45.63;;;18.40;;
32876;SDS011;19226;51.600;8.034;2023-03-03T22:59:34;50.33;;;19.92;;
32876;SDS011;19226;51.600;8.034;2023-03-03T23:02:19;45.45;;;18.17;;
32876;SDS011;19226;51.600;8.034;2023-03-03T23:05:03;45.63;;;18.80;;
32876;SDS011;19226;51.600;8.034;2023-03-03T23:07:51;48.05;;;19.08;;
32876;SDS011;19226;51.600;8.034;2023-03-03T23:10:35;54.63;;;19.42;;
32876;SDS011;19226;51.600;8.034;2023-03-03T23:13:20;50.28;;;19.88;;
32876;SDS011;19226;51.600;8.034;2023-03-03T23:16:05;48.10;;;19.70;;
32876;SDS011;19226;51.600;8.034;2023-03-03T23:18:51;48.60;;;18.77;;
32876;SDS011;19226;51.600;8.034;2023-03-03T23:21:36;49.03;;;19.30;;
32876;SDS011;19226;51.600;8.034;2023-03-03T23:24:20;45.20;;;18.35;;
32876;SDS011;19226;51.600;8.034;2023-03-03T23:27:05;41.58;;;18.20;;
32876;SDS011;19226;51.600;8.034;2023-03-03T23:29:50;50.35;;;19.52;;
32876;SDS011;19226;51.600;8.034;2023-03-03T23:32:35;47.17;;;19.05;;
32876;SDS011;19226;51.600;8.034;2023-03-03T23:35:20;50.47;;;18.77;;
32876;SDS011;19226;51.600;8.034;2023-03-03T23:38:04;43.55;;;19.08;;